createdAt,value
2023-11-23T00:00:24.971Z,20.00
2023-11-23T00:02:52.400Z,22.45
2023-11-23T00:05:21.744Z,18.65
2023-11-23T00:07:49.390Z,20.27
2023-11-23T00:10:17.219Z,20.98
2023-11-23T00:12:45.186Z,21.05
2023-11-23T00:15:13.436Z,21.58
2023-11-23T00:17:41.026Z,21.35
2023-11-23T00:20:10.392Z,21.67
2023-11-23T00:22:37.902Z,21.58
2023-11-23T00:25:06.026Z,23.02
2023-11-23T00:27:35.505Z,23.55
2023-11-23T00:30:03.074Z,21.40
2023-11-23T00:32:33.351Z,21.58
2023-11-23T00:35:00.751Z,22.10
2023-11-23T00:37:29.586Z,20.75
2023-11-23T00:39:56.896Z,21.13
2023-11-23T00:42:25.862Z,23.85
2023-11-23T00:44:53.330Z,22.55
2023-11-23T00:47:21.274Z,21.45
2023-11-23T00:49:49.050Z,21.38
2023-11-23T00:52:17.299Z,20.48
2023-11-23T00:54:48.569Z,20.95
2023-11-23T00:57:16.292Z,23.17
2023-11-23T00:59:48.158Z,22.10
2023-11-23T01:02:16.238Z,22.45
2023-11-23T01:04:44.042Z,19.60
2023-11-23T01:07:11.228Z,18.83
2023-11-23T01:09:38.485Z,20.23
2023-11-23T01:12:09.966Z,20.42
2023-11-23T01:14:38.045Z,22.60
2023-11-23T01:17:05.862Z,20.08
2023-11-23T01:19:33.186Z,19.45
2023-11-23T01:22:00.694Z,19.20
2023-11-23T01:24:27.865Z,19.13
2023-11-23T01:26:55.096Z,17.33
2023-11-23T01:29:22.411Z,18.13
2023-11-23T01:31:49.667Z,18.83
2023-11-23T01:34:17.611Z,18.77
2023-11-23T01:36:45.369Z,17.10
2023-11-23T01:39:13.046Z,19.60
2023-11-23T01:41:40.324Z,19.67
2023-11-23T01:44:07.599Z,20.00
2023-11-23T01:46:34.825Z,18.95
2023-11-23T01:49:04.639Z,18.40
2023-11-23T01:51:32.868Z,18.92
2023-11-23T01:54:00.319Z,21.70
2023-11-23T01:56:31.345Z,20.05
2023-11-23T01:59:00.851Z,20.38
2023-11-23T02:01:28.637Z,17.20
2023-11-23T02:03:56.629Z,18.92
2023-11-23T02:06:23.844Z,18.90
2023-11-23T02:08:51.495Z,17.15
2023-11-23T02:11:19.155Z,20.15
2023-11-23T02:13:46.929Z,19.13
2023-11-23T02:16:15.300Z,19.35
2023-11-23T02:18:42.654Z,19.35
2023-11-23T02:21:10.303Z,19.13
2023-11-23T02:23:37.569Z,20.02
2023-11-23T02:26:05.231Z,20.20
2023-11-23T02:28:34.897Z,20.63
2023-11-23T02:31:03.393Z,18.25
2023-11-23T02:33:32.936Z,18.85
2023-11-23T02:36:01.010Z,20.65
2023-11-23T02:38:28.420Z,18.48
2023-11-23T02:40:55.835Z,19.40
2023-11-23T02:43:23.093Z,18.33
2023-11-23T02:45:50.386Z,19.70
2023-11-23T02:48:18.178Z,18.83
2023-11-23T02:50:46.358Z,20.30
2023-11-23T02:53:28.721Z,20.58
2023-11-23T02:55:56.485Z,20.70
2023-11-23T02:58:23.909Z,20.20
2023-11-23T03:00:55.264Z,20.55
2023-11-23T03:03:23.156Z,24.27
2023-11-23T03:05:50.996Z,19.83
2023-11-23T03:08:18.633Z,22.30
2023-11-23T03:10:46.009Z,22.25
2023-11-23T03:13:13.683Z,21.50
2023-11-23T03:15:40.923Z,20.33
2023-11-23T03:18:10.991Z,22.02
2023-11-23T03:20:40.080Z,21.58
2023-11-23T03:23:07.217Z,23.65
2023-11-23T03:25:34.702Z,21.08
2023-11-23T03:28:02.752Z,23.92
2023-11-23T03:30:29.992Z,27.65
2023-11-23T03:32:57.547Z,24.35
2023-11-23T03:35:25.291Z,21.83
2023-11-23T03:37:53.170Z,21.13
2023-11-23T03:40:20.485Z,21.42
2023-11-23T03:42:47.927Z,22.45
2023-11-23T03:45:15.232Z,21.33
2023-11-23T03:47:43.155Z,22.73
2023-11-23T03:50:11.491Z,21.60
2023-11-23T03:52:38.727Z,23.63
2023-11-23T03:55:07.242Z,22.15
2023-11-23T03:57:35.246Z,24.83
2023-11-23T04:00:04.504Z,26.88
2023-11-23T04:02:34.026Z,22.90
2023-11-23T04:05:01.786Z,20.73
2023-11-23T04:07:30.205Z,25.05
2023-11-23T04:09:57.747Z,25.73
2023-11-23T04:12:25.285Z,23.88
2023-11-23T04:14:52.758Z,26.85
2023-11-23T04:17:21.028Z,28.27
2023-11-23T04:19:48.259Z,27.13
2023-11-23T04:22:15.460Z,26.73
2023-11-23T04:24:42.966Z,26.30
2023-11-23T04:27:10.666Z,27.63
2023-11-23T04:29:37.955Z,25.35
2023-11-23T04:32:07.447Z,27.77
2023-11-23T04:34:40.877Z,27.42
2023-11-23T04:37:08.287Z,27.38
2023-11-23T04:39:35.675Z,26.90
2023-11-23T04:42:03.526Z,25.08
2023-11-23T04:44:30.766Z,27.50
2023-11-23T04:46:57.914Z,26.10
2023-11-23T04:49:25.481Z,25.90
2023-11-23T04:51:56.043Z,31.13
2023-11-23T04:54:23.303Z,29.55
2023-11-23T04:56:52.018Z,27.85
2023-11-23T04:59:20.138Z,32.97
2023-11-23T05:01:47.500Z,31.45
2023-11-23T05:04:14.868Z,30.83
2023-11-23T05:06:42.423Z,29.58
2023-11-23T05:09:11.524Z,30.75
2023-11-23T05:11:38.985Z,30.35
2023-11-23T05:14:08.283Z,29.90
2023-11-23T05:16:36.437Z,29.08
2023-11-23T05:19:04.120Z,30.83
2023-11-23T05:21:31.403Z,31.50
2023-11-23T05:24:00.901Z,30.35
2023-11-23T05:26:29.850Z,29.63
2023-11-23T05:28:56.999Z,31.73
2023-11-23T05:31:24.202Z,31.35
2023-11-23T05:33:51.689Z,29.73
2023-11-23T05:36:20.171Z,29.33
2023-11-23T05:38:47.821Z,32.35
2023-11-23T05:41:15.695Z,32.42
2023-11-23T05:43:43.056Z,34.78
2023-11-23T05:46:13.177Z,32.95
2023-11-23T05:48:41.973Z,30.20
2023-11-23T05:51:10.728Z,32.63
2023-11-23T05:53:38.146Z,34.05
2023-11-23T05:56:06.308Z,31.05
2023-11-23T05:58:34.043Z,34.85
2023-11-23T06:01:09.543Z,32.80
2023-11-23T06:03:42.202Z,32.10
2023-11-23T06:06:20.579Z,32.70
2023-11-23T06:08:49.805Z,33.25
2023-11-23T06:11:19.477Z,33.92
2023-11-23T06:13:47.401Z,32.42
2023-11-23T06:16:15.989Z,34.17
2023-11-23T06:18:43.679Z,30.85
2023-11-23T06:21:11.468Z,33.33
2023-11-23T06:23:38.699Z,33.45
2023-11-23T06:26:06.062Z,32.22
2023-11-23T06:28:33.271Z,32.72
2023-11-23T06:31:00.373Z,34.83
2023-11-23T06:33:28.625Z,30.35
2023-11-23T06:35:56.547Z,32.15
2023-11-23T06:38:25.326Z,30.05
2023-11-23T06:40:52.587Z,32.50
2023-11-23T06:43:19.895Z,29.70
2023-11-23T06:45:47.214Z,46.83
2023-11-23T06:48:15.117Z,33.42
2023-11-23T06:50:42.674Z,33.55
2023-11-23T06:53:10.012Z,32.28
2023-11-23T06:55:40.804Z,30.67
2023-11-23T06:58:10.880Z,29.67
2023-11-23T07:00:39.823Z,35.75
2023-11-23T07:03:07.175Z,32.15
2023-11-23T07:05:34.469Z,30.83
2023-11-23T07:08:02.088Z,29.75
2023-11-23T07:10:30.669Z,32.80
2023-11-23T07:12:58.213Z,31.48
2023-11-23T07:15:27.638Z,29.80
2023-11-23T07:17:55.094Z,29.52
2023-11-23T07:20:23.419Z,30.60
2023-11-23T07:22:50.756Z,27.95
2023-11-23T07:25:18.527Z,28.00
2023-11-23T07:27:46.089Z,30.00
2023-11-23T07:30:14.455Z,27.35
2023-11-23T07:32:43.064Z,25.90
2023-11-23T07:35:17.958Z,22.73
2023-11-23T07:37:45.558Z,21.33
2023-11-23T07:40:14.649Z,24.00
2023-11-23T07:42:44.838Z,20.17
2023-11-23T07:45:13.563Z,20.88
2023-11-23T07:47:43.475Z,19.73
2023-11-23T07:50:18.252Z,20.60
2023-11-23T07:52:47.224Z,21.90
2023-11-23T07:55:18.996Z,20.90
2023-11-23T07:57:49.630Z,20.65
2023-11-23T08:00:20.560Z,23.30
2023-11-23T08:02:48.878Z,19.88
2023-11-23T08:05:17.089Z,18.73
2023-11-23T08:07:51.702Z,18.75
2023-11-23T08:10:20.781Z,16.30
2023-11-23T08:12:48.331Z,17.52
2023-11-23T08:15:15.758Z,15.07
2023-11-23T08:17:54.010Z,14.27
2023-11-23T08:20:28.209Z,14.65
2023-11-23T08:22:55.940Z,15.90
2023-11-23T08:25:23.583Z,13.80
2023-11-23T08:27:50.909Z,14.23
2023-11-23T08:30:21.400Z,13.40
2023-11-23T08:32:49.475Z,11.77
2023-11-23T08:35:17.844Z,11.23
2023-11-23T08:37:45.218Z,11.95
2023-11-23T08:40:13.035Z,10.85
2023-11-23T08:42:40.414Z,10.63
2023-11-23T08:45:09.464Z,9.93
2023-11-23T08:47:37.376Z,12.60
2023-11-23T08:50:07.203Z,13.18
2023-11-23T08:52:34.459Z,10.77
2023-11-23T08:55:02.057Z,10.95
2023-11-23T08:57:30.002Z,10.35
2023-11-23T08:59:57.664Z,12.88
2023-11-23T09:02:25.177Z,11.32
2023-11-23T09:04:52.748Z,11.18
2023-11-23T09:07:21.292Z,10.73
2023-11-23T09:09:49.244Z,9.70
2023-11-23T09:12:18.290Z,10.27
2023-11-23T09:14:49.462Z,10.63
2023-11-23T09:17:18.597Z,8.77
2023-11-23T09:19:48.532Z,9.85
2023-11-23T09:22:16.034Z,10.65
2023-11-23T09:24:43.878Z,8.57
2023-11-23T09:27:12.168Z,10.57
2023-11-23T09:29:39.692Z,9.80
2023-11-23T09:32:07.580Z,8.25
2023-11-23T09:34:35.593Z,10.63
2023-11-23T09:37:04.193Z,11.05
2023-11-23T09:39:36.001Z,8.85
2023-11-23T09:42:07.455Z,7.78
2023-11-23T09:44:37.491Z,8.27
2023-11-23T09:47:07.774Z,13.15
2023-11-23T09:49:38.413Z,8.50
2023-11-23T09:52:08.075Z,10.52
2023-11-23T09:54:36.423Z,7.68
2023-11-23T09:57:06.024Z,8.23
2023-11-23T09:59:33.544Z,8.38
2023-11-23T10:02:06.483Z,6.47
2023-11-23T10:04:34.653Z,7.80
2023-11-23T10:07:06.336Z,7.97
2023-11-23T10:09:35.392Z,7.18
2023-11-23T10:12:04.481Z,11.75
2023-11-23T10:14:32.080Z,7.28
2023-11-23T10:16:59.426Z,9.60
2023-11-23T10:19:26.670Z,9.88
2023-11-23T10:22:00.481Z,9.52
2023-11-23T10:24:28.858Z,9.85
2023-11-23T10:26:57.609Z,10.75
2023-11-23T10:29:29.961Z,6.85
2023-11-23T10:32:02.870Z,9.45
2023-11-23T10:34:32.725Z,11.05
2023-11-23T10:37:02.038Z,8.43
2023-11-23T10:39:32.258Z,8.18
2023-11-23T10:42:01.094Z,8.55
2023-11-23T10:44:31.009Z,7.78
2023-11-23T10:47:04.845Z,8.23
2023-11-23T10:49:35.859Z,7.80
2023-11-23T10:52:06.653Z,6.43
2023-11-23T10:54:34.268Z,6.18
2023-11-23T10:57:06.630Z,6.78
2023-11-23T10:59:36.136Z,6.47
2023-11-23T11:02:05.616Z,6.82
2023-11-23T11:04:33.411Z,6.70
2023-11-23T11:07:05.278Z,7.13
2023-11-23T11:09:37.684Z,5.53
2023-11-23T11:12:14.304Z,6.00
2023-11-23T11:14:52.192Z,7.97
2023-11-23T11:17:19.477Z,10.02
2023-11-23T11:19:51.435Z,6.82
2023-11-23T11:22:18.950Z,6.28
2023-11-23T11:24:46.703Z,5.13
2023-11-23T11:27:15.276Z,5.40
2023-11-23T11:29:53.459Z,5.15
2023-11-23T11:32:22.842Z,6.30
2023-11-23T11:35:03.610Z,6.43
2023-11-23T11:37:34.533Z,6.82
2023-11-23T11:40:02.253Z,4.50
2023-11-23T11:42:31.432Z,5.25
2023-11-23T11:44:59.698Z,5.07
2023-11-23T11:47:29.079Z,7.18
2023-11-23T11:49:58.542Z,5.20
2023-11-23T11:52:27.364Z,6.47
2023-11-23T11:54:56.422Z,5.82
2023-11-23T11:57:24.134Z,6.22
2023-11-23T11:59:53.977Z,4.47
2023-11-23T12:02:21.822Z,7.40
2023-11-23T12:05:01.400Z,6.13
2023-11-23T12:07:28.785Z,5.97
2023-11-23T12:09:57.099Z,5.30
2023-11-23T12:12:40.420Z,5.75
2023-11-23T12:15:16.974Z,7.32
2023-11-23T12:17:54.490Z,5.85
2023-11-23T12:20:23.620Z,4.75
2023-11-23T12:22:58.367Z,5.10
2023-11-23T12:25:25.750Z,5.10
2023-11-23T12:27:53.046Z,5.15
2023-11-23T12:30:21.682Z,5.32
2023-11-23T12:32:49.444Z,6.95
2023-11-23T12:35:18.323Z,8.82
2023-11-23T12:37:46.156Z,6.22
2023-11-23T12:40:14.069Z,5.47
2023-11-23T12:42:42.220Z,5.78
2023-11-23T12:45:10.429Z,6.88
2023-11-23T12:47:38.108Z,4.75
2023-11-23T12:50:08.662Z,6.00
2023-11-23T12:52:35.892Z,3.83
2023-11-23T12:55:06.304Z,7.72
2023-11-23T12:57:34.353Z,3.90
2023-11-23T13:00:07.516Z,4.28
2023-11-23T13:02:35.542Z,3.83
2023-11-23T13:05:03.720Z,4.88
2023-11-23T13:07:31.030Z,5.80
2023-11-23T13:09:58.973Z,4.53
2023-11-23T13:12:28.061Z,4.85
2023-11-23T13:14:57.300Z,5.03
2023-11-23T13:17:25.142Z,4.05
2023-11-23T13:19:52.627Z,4.32
2023-11-23T13:22:20.736Z,4.50
2023-11-23T13:24:48.519Z,3.78
2023-11-23T13:27:18.201Z,3.83
2023-11-23T13:29:45.461Z,3.55
2023-11-23T13:32:18.014Z,4.55
2023-11-23T13:34:45.301Z,4.90
2023-11-23T13:37:14.022Z,4.53
2023-11-23T13:39:41.358Z,4.90
2023-11-23T13:42:09.021Z,4.43
2023-11-23T13:44:36.611Z,3.33
2023-11-23T13:47:05.584Z,4.50
2023-11-23T13:49:35.599Z,4.35
2023-11-23T13:52:04.095Z,4.50
2023-11-23T13:54:34.062Z,2.88
2023-11-23T13:57:02.218Z,4.40
2023-11-23T13:59:30.350Z,3.55
2023-11-23T14:01:59.638Z,4.00
2023-11-23T14:04:27.867Z,4.97
2023-11-23T14:06:57.075Z,3.75
2023-11-23T14:09:27.628Z,3.92
2023-11-23T14:11:57.049Z,3.13
2023-11-23T14:14:24.620Z,7.22
2023-11-23T14:16:52.081Z,7.47
2023-11-23T14:19:21.125Z,3.17
2023-11-23T14:21:48.705Z,4.55
2023-11-23T14:24:16.904Z,5.55
2023-11-23T14:26:44.413Z,4.15
2023-11-23T14:29:12.663Z,7.95
2023-11-23T14:31:40.404Z,4.28
2023-11-23T14:34:08.155Z,6.78
2023-11-23T14:36:36.130Z,4.35
2023-11-23T14:39:06.080Z,4.63
2023-11-23T14:41:33.355Z,7.63
2023-11-23T14:44:00.889Z,3.97
2023-11-23T14:46:28.276Z,6.72
2023-11-23T14:48:55.725Z,5.13
2023-11-23T14:51:28.331Z,2.67
2023-11-23T14:54:03.974Z,3.20
2023-11-23T14:56:37.279Z,3.00
2023-11-23T14:59:06.802Z,3.08
2023-11-23T15:01:36.780Z,4.43
2023-11-23T15:04:07.702Z,3.13
2023-11-23T15:06:35.162Z,4.72
2023-11-23T15:09:02.865Z,3.35
2023-11-23T15:11:31.972Z,6.25
2023-11-23T15:13:59.212Z,5.55
2023-11-23T15:16:26.524Z,4.55
2023-11-23T15:18:54.002Z,4.15
2023-11-23T15:21:21.779Z,4.25
2023-11-23T15:23:49.829Z,2.83
2023-11-23T15:26:16.994Z,4.00
2023-11-23T15:28:44.231Z,5.95
2023-11-23T15:31:16.796Z,3.05
2023-11-23T15:33:44.313Z,5.28
2023-11-23T15:36:12.635Z,2.92
2023-11-23T15:38:40.452Z,4.10
2023-11-23T15:41:07.725Z,4.25
2023-11-23T15:43:35.225Z,5.72
2023-11-23T15:46:02.728Z,10.30
2023-11-23T15:48:29.961Z,2.40
2023-11-23T15:50:58.218Z,2.78
2023-11-23T15:53:26.060Z,2.08
2023-11-23T15:55:55.831Z,2.35
2023-11-23T15:58:23.430Z,3.58
2023-11-23T16:00:51.040Z,6.05
2023-11-23T16:03:18.980Z,5.85
2023-11-23T16:05:46.346Z,5.47
2023-11-23T16:08:14.069Z,2.75
2023-11-23T16:10:42.571Z,3.38
2023-11-23T16:13:11.062Z,2.15
2023-11-23T16:15:38.516Z,6.38
2023-11-23T16:18:06.820Z,5.90
2023-11-23T16:20:34.275Z,2.90
2023-11-23T16:23:02.342Z,3.83
2023-11-23T16:25:29.605Z,9.73
2023-11-23T16:27:57.498Z,3.28
2023-11-23T16:30:25.257Z,5.82
2023-11-23T16:32:55.583Z,4.43
2023-11-23T16:35:23.497Z,4.13
2023-11-23T16:37:51.535Z,5.35
2023-11-23T16:40:20.784Z,10.55
2023-11-23T16:42:48.800Z,13.93
2023-11-23T16:45:16.505Z,8.40
2023-11-23T16:47:43.983Z,6.28
2023-11-23T16:50:12.267Z,5.63
2023-11-23T16:52:40.663Z,3.40
2023-11-23T16:55:09.360Z,7.25
2023-11-23T16:57:37.579Z,3.50
2023-11-23T17:00:09.790Z,3.72
2023-11-23T17:02:37.405Z,3.17
2023-11-23T17:05:05.664Z,3.42
2023-11-23T17:07:33.367Z,4.32
2023-11-23T17:10:01.312Z,3.85
2023-11-23T17:12:29.026Z,3.80
2023-11-23T17:14:56.605Z,3.15
2023-11-23T17:17:23.915Z,2.97
2023-11-23T17:19:51.412Z,5.22
2023-11-23T17:22:19.093Z,3.08
2023-11-23T17:24:46.505Z,4.10
2023-11-23T17:27:13.805Z,3.28
2023-11-23T17:29:42.045Z,2.80
2023-11-23T17:32:09.508Z,2.75
2023-11-23T17:34:43.539Z,3.55
2023-11-23T17:37:11.075Z,3.53
2023-11-23T17:39:38.550Z,2.88
2023-11-23T17:42:06.455Z,4.03
2023-11-23T17:44:33.993Z,6.93
2023-11-23T17:47:01.696Z,5.10
2023-11-23T17:49:29.750Z,3.03
2023-11-23T17:51:57.069Z,2.53
2023-11-23T17:54:32.713Z,2.75
2023-11-23T17:57:00.694Z,2.78
2023-11-23T17:59:43.145Z,3.70
2023-11-23T18:02:19.226Z,2.40
2023-11-23T18:04:52.621Z,2.13
2023-11-23T18:07:22.205Z,3.10
2023-11-23T18:09:53.091Z,2.40
2023-11-23T18:12:20.805Z,2.95
2023-11-23T18:14:48.195Z,2.67
2023-11-23T18:17:15.448Z,3.10
2023-11-23T18:19:43.607Z,3.03
2023-11-23T18:22:10.843Z,3.67
2023-11-23T18:24:38.148Z,3.00
2023-11-23T18:27:07.503Z,3.47
2023-11-23T18:29:37.209Z,2.90
2023-11-23T18:32:05.253Z,3.08
2023-11-23T18:34:34.950Z,2.95
2023-11-23T18:37:02.853Z,3.53
2023-11-23T18:39:30.232Z,3.40
2023-11-23T18:41:59.199Z,3.15
2023-11-23T18:44:26.709Z,2.80
2023-11-23T18:46:55.571Z,2.90
2023-11-23T18:49:28.892Z,3.08
2023-11-23T18:51:56.338Z,2.78
2023-11-23T18:54:23.795Z,2.70
2023-11-23T18:56:52.182Z,3.42
2023-11-23T18:59:19.603Z,2.30
2023-11-23T19:01:47.496Z,2.65
2023-11-23T19:04:15.198Z,2.45
2023-11-23T19:06:42.874Z,2.95
2023-11-23T19:09:14.277Z,4.47
2023-11-23T19:11:42.806Z,4.43
2023-11-23T19:14:10.157Z,3.47
2023-11-23T19:16:37.392Z,3.08
2023-11-23T19:19:05.370Z,3.08
2023-11-23T19:21:33.197Z,3.20
2023-11-23T19:24:01.022Z,5.80
2023-11-23T19:26:28.733Z,3.72
2023-11-23T19:28:59.446Z,4.22
2023-11-23T19:31:30.687Z,4.00
2023-11-23T19:33:59.057Z,4.95
2023-11-23T19:36:29.039Z,2.45
2023-11-23T19:38:57.108Z,2.47
2023-11-23T19:41:27.066Z,2.17
2023-11-23T19:43:55.780Z,3.05
2023-11-23T19:46:23.572Z,3.63
2023-11-23T19:48:51.441Z,5.68
2023-11-23T19:51:30.093Z,3.03
2023-11-23T19:53:59.385Z,2.10
2023-11-23T19:56:26.804Z,3.45
2023-11-23T19:58:54.141Z,2.10
2023-11-23T20:01:21.569Z,2.78
2023-11-23T20:03:49.188Z,3.28
2023-11-23T20:06:16.937Z,2.95
2023-11-23T20:08:45.013Z,2.30
2023-11-23T20:11:15.408Z,2.92
2023-11-23T20:13:42.701Z,2.85
2023-11-23T20:16:21.490Z,3.35
2023-11-23T20:18:55.741Z,3.17
2023-11-23T20:21:23.238Z,3.10
2023-11-23T20:23:50.461Z,4.07
2023-11-23T20:26:17.720Z,3.40
2023-11-23T20:28:45.341Z,4.32
2023-11-23T20:31:14.206Z,4.03
2023-11-23T20:33:42.526Z,3.42
2023-11-23T20:36:10.490Z,3.05
2023-11-23T20:38:37.918Z,2.95
2023-11-23T20:41:06.486Z,2.97
2023-11-23T20:43:34.198Z,4.05
2023-11-23T20:46:01.945Z,3.08
2023-11-23T20:48:29.380Z,4.00
2023-11-23T20:50:59.722Z,2.65
2023-11-23T20:53:26.986Z,3.90
2023-11-23T20:55:55.419Z,3.30
2023-11-23T20:58:23.285Z,4.95
2023-11-23T21:00:51.501Z,4.63
2023-11-23T21:03:19.667Z,3.97
2023-11-23T21:05:48.564Z,2.85
2023-11-23T21:08:19.136Z,3.80
2023-11-23T21:10:48.701Z,3.08
2023-11-23T21:13:16.718Z,3.75
2023-11-23T21:15:44.605Z,4.97
2023-11-23T21:18:13.265Z,3.25
2023-11-23T21:20:41.411Z,2.63
2023-11-23T21:23:08.597Z,3.58
2023-11-23T21:25:38.133Z,3.53
2023-11-23T21:28:05.797Z,3.35
2023-11-23T21:30:32.987Z,3.95
2023-11-23T21:33:01.313Z,4.35
2023-11-23T21:35:33.566Z,3.13
2023-11-23T21:38:01.547Z,4.18
2023-11-23T21:40:29.693Z,3.30
2023-11-23T21:42:57.665Z,4.28
2023-11-23T21:45:25.376Z,4.90
2023-11-23T21:47:52.773Z,3.63
2023-11-23T21:50:20.107Z,4.47
2023-11-23T21:52:47.426Z,3.85
2023-11-23T21:55:17.967Z,3.40
2023-11-23T21:57:45.762Z,3.17
2023-11-23T22:00:14.729Z,2.92
2023-11-23T22:02:43.034Z,4.57
2023-11-23T22:05:11.316Z,2.80
2023-11-23T22:07:38.875Z,3.58
2023-11-23T22:10:08.346Z,3.75
2023-11-23T22:12:37.201Z,3.28
2023-11-23T22:15:07.645Z,2.88
2023-11-23T22:17:36.242Z,3.22
2023-11-23T22:20:04.264Z,4.13
2023-11-23T22:22:32.205Z,2.95
2023-11-23T22:24:59.709Z,4.00
2023-11-23T22:27:29.105Z,2.40
2023-11-23T22:29:56.705Z,4.45
2023-11-23T22:32:28.908Z,3.78
2023-11-23T22:34:56.775Z,3.20
2023-11-23T22:37:25.289Z,4.30
2023-11-23T22:39:54.906Z,3.28
2023-11-23T22:42:29.173Z,4.50
2023-11-23T22:44:57.692Z,3.38
2023-11-23T22:47:25.025Z,4.30
2023-11-23T22:49:52.520Z,3.67
2023-11-23T22:52:20.177Z,3.45
2023-11-23T22:54:48.239Z,2.53
2023-11-23T22:57:16.431Z,3.35
2023-11-23T22:59:43.838Z,2.63
2023-11-23T23:02:11.411Z,2.90
2023-11-23T23:04:40.287Z,2.63
2023-11-23T23:07:08.677Z,2.42
2023-11-23T23:09:36.444Z,3.72
2023-11-23T23:12:04.716Z,2.50
2023-11-23T23:14:33.442Z,2.80
2023-11-23T23:17:01.192Z,3.38
2023-11-23T23:19:28.320Z,3.53
2023-11-23T23:21:55.836Z,4.32
2023-11-23T23:24:23.070Z,2.30
2023-11-23T23:26:50.308Z,3.25
2023-11-23T23:29:18.299Z,3.88
2023-11-23T23:31:45.711Z,3.00
2023-11-23T23:34:13.130Z,1.52
2023-11-23T23:36:40.697Z,3.28
2023-11-23T23:39:08.952Z,2.38
2023-11-23T23:41:36.230Z,2.15
2023-11-23T23:44:03.719Z,2.00
2023-11-23T23:46:31.972Z,3.28
2023-11-23T23:48:59.211Z,2.08
2023-11-23T23:51:26.595Z,2.40
2023-11-23T23:53:55.009Z,2.33
2023-11-23T23:56:23.465Z,2.65
2023-11-23T23:58:50.996Z,3.15
